sensor_id;sensor_type;location;lat;lon;timestamp;P1;durP1;ratioP1;P2;durP2;ratioP2
76656;SDS011;65576;47.714;9.414;2022-12-08T00:01:25;5.55;;;3.20;;
76656;SDS011;65576;47.714;9.414;2022-12-08T00:03:52;4.13;;;3.15;;
76656;SDS011;65576;47.714;9.414;2022-12-08T00:06:22;5.20;;;3.22;;
76656;SDS011;65576;47.714;9.414;2022-12-08T00:11:54;3.55;;;2.42;;
76656;SDS011;65576;47.714;9.414;2022-12-08T00:14:22;5.18;;;2.38;;
76656;SDS011;65576;47.714;9.414;2022-12-08T00:16:49;5.65;;;2.63;;
76656;SDS011;65576;47.714;9.414;2022-12-08T00:19:14;2.70;;;2.50;;
76656;SDS011;65576;47.714;9.414;2022-12-08T00:21:40;5.45;;;3.42;;
76656;SDS011;65576;47.714;9.414;2022-12-08T00:24:05;4.50;;;2.97;;
76656;SDS011;65576;47.714;9.414;2022-12-08T00:26:31;4.07;;;3.30;;
76656;SDS011;65576;47.714;9.414;2022-12-08T00:28:56;3.95;;;3.28;;
76656;SDS011;65576;47.714;9.414;2022-12-08T00:31:21;2.80;;;2.55;;
76656;SDS011;65576;47.714;9.414;2022-12-08T00:33:47;4.47;;;2.65;;
76656;SDS011;65576;47.714;9.414;2022-12-08T00:36:12;4.28;;;2.60;;
76656;SDS011;65576;47.714;9.414;2022-12-08T00:38:39;3.58;;;2.35;;
76656;SDS011;65576;47.714;9.414;2022-12-08T00:41:12;11.52;;;2.95;;
76656;SDS011;65576;47.714;9.414;2022-12-08T00:43:42;5.50;;;3.17;;
76656;SDS011;65576;47.714;9.414;2022-12-08T00:46:07;5.22;;;3.25;;
76656;SDS011;65576;47.714;9.414;2022-12-08T00:48:33;2.13;;;2.00;;
76656;SDS011;65576;47.714;9.414;2022-12-08T00:50:58;4.95;;;3.85;;
76656;SDS011;65576;47.714;9.414;2022-12-08T00:53:23;5.75;;;3.50;;
76656;SDS011;65576;47.714;9.414;2022-12-08T00:55:49;3.85;;;3.03;;
76656;SDS011;65576;47.714;9.414;2022-12-08T00:58:14;5.70;;;2.80;;
76656;SDS011;65576;47.714;9.414;2022-12-08T01:00:40;7.32;;;3.33;;
76656;SDS011;65576;47.714;9.414;2022-12-08T01:03:08;2.65;;;2.42;;
76656;SDS011;65576;47.714;9.414;2022-12-08T01:05:34;2.38;;;1.95;;
76656;SDS011;65576;47.714;9.414;2022-12-08T01:07:59;3.88;;;2.95;;
76656;SDS011;65576;47.714;9.414;2022-12-08T01:10:24;4.20;;;3.05;;
76656;SDS011;65576;47.714;9.414;2022-12-08T01:12:50;5.18;;;2.75;;
76656;SDS011;65576;47.714;9.414;2022-12-08T01:15:15;2.92;;;2.30;;
76656;SDS011;65576;47.714;9.414;2022-12-08T01:17:40;3.35;;;2.78;;
76656;SDS011;65576;47.714;9.414;2022-12-08T01:20:06;3.13;;;1.90;;
76656;SDS011;65576;47.714;9.414;2022-12-08T01:22:32;4.85;;;3.60;;
76656;SDS011;65576;47.714;9.414;2022-12-08T01:24:59;4.25;;;3.47;;
76656;SDS011;65576;47.714;9.414;2022-12-08T01:27:24;3.65;;;3.35;;
76656;SDS011;65576;47.714;9.414;2022-12-08T01:29:49;3.95;;;2.88;;
76656;SDS011;65576;47.714;9.414;2022-12-08T01:32:15;4.57;;;3.15;;
76656;SDS011;65576;47.714;9.414;2022-12-08T01:34:40;3.25;;;2.17;;
76656;SDS011;65576;47.714;9.414;2022-12-08T01:37:06;4.50;;;2.15;;
76656;SDS011;65576;47.714;9.414;2022-12-08T01:39:31;2.42;;;2.22;;
76656;SDS011;65576;47.714;9.414;2022-12-08T01:41:56;5.07;;;3.38;;
76656;SDS011;65576;47.714;9.414;2022-12-08T01:46:47;6.88;;;2.70;;
76656;SDS011;65576;47.714;9.414;2022-12-08T01:49:20;4.38;;;2.92;;
76656;SDS011;65576;47.714;9.414;2022-12-08T01:54:25;6.03;;;3.72;;
76656;SDS011;65576;47.714;9.414;2022-12-08T01:59:26;3.35;;;2.33;;
76656;SDS011;65576;47.714;9.414;2022-12-08T02:01:53;5.25;;;3.60;;
76656;SDS011;65576;47.714;9.414;2022-12-08T02:04:18;2.97;;;2.70;;
76656;SDS011;65576;47.714;9.414;2022-12-08T02:06:44;5.68;;;2.65;;
76656;SDS011;65576;47.714;9.414;2022-12-08T02:09:11;7.60;;;3.75;;
76656;SDS011;65576;47.714;9.414;2022-12-08T02:11:36;2.95;;;2.70;;
76656;SDS011;65576;47.714;9.414;2022-12-08T02:14:02;2.40;;;2.20;;
76656;SDS011;65576;47.714;9.414;2022-12-08T02:19:34;2.97;;;2.63;;
76656;SDS011;65576;47.714;9.414;2022-12-08T02:22:32;5.60;;;3.03;;
76656;SDS011;65576;47.714;9.414;2022-12-08T02:25:33;2.20;;;2.00;;
76656;SDS011;65576;47.714;9.414;2022-12-08T02:28:05;4.60;;;3.60;;
76656;SDS011;65576;47.714;9.414;2022-12-08T02:30:46;1.67;;;1.58;;
76656;SDS011;65576;47.714;9.414;2022-12-08T02:36:21;2.40;;;2.13;;
76656;SDS011;65576;47.714;9.414;2022-12-08T02:46:54;5.60;;;3.72;;
76656;SDS011;65576;47.714;9.414;2022-12-08T02:49:29;3.95;;;2.53;;
76656;SDS011;65576;47.714;9.414;2022-12-08T02:54:36;2.63;;;1.60;;
76656;SDS011;65576;47.714;9.414;2022-12-08T02:57:21;3.17;;;2.50;;
76656;SDS011;65576;47.714;9.414;2022-12-08T03:00:08;5.80;;;2.00;;
76656;SDS011;65576;47.714;9.414;2022-12-08T03:02:44;3.30;;;2.92;;
76656;SDS011;65576;47.714;9.414;2022-12-08T03:05:33;5.70;;;3.42;;
76656;SDS011;65576;47.714;9.414;2022-12-08T03:08:33;3.53;;;3.22;;
76656;SDS011;65576;47.714;9.414;2022-12-08T03:11:23;2.53;;;2.17;;
76656;SDS011;65576;47.714;9.414;2022-12-08T03:13:55;4.20;;;3.60;;
76656;SDS011;65576;47.714;9.414;2022-12-08T03:16:25;2.88;;;2.28;;
76656;SDS011;65576;47.714;9.414;2022-12-08T03:18:59;7.25;;;3.05;;
76656;SDS011;65576;47.714;9.414;2022-12-08T03:21:29;3.53;;;2.88;;
76656;SDS011;65576;47.714;9.414;2022-12-08T03:23:58;3.40;;;2.78;;
76656;SDS011;65576;47.714;9.414;2022-12-08T03:26:29;4.03;;;2.65;;
76656;SDS011;65576;47.714;9.414;2022-12-08T03:28:58;3.28;;;2.05;;
76656;SDS011;65576;47.714;9.414;2022-12-08T03:31:24;3.42;;;3.13;;
76656;SDS011;65576;47.714;9.414;2022-12-08T03:33:53;7.05;;;2.92;;
76656;SDS011;65576;47.714;9.414;2022-12-08T03:36:22;4.53;;;3.85;;
76656;SDS011;65576;47.714;9.414;2022-12-08T03:38:49;2.90;;;2.20;;
76656;SDS011;65576;47.714;9.414;2022-12-08T03:41:16;3.83;;;2.50;;
76656;SDS011;65576;47.714;9.414;2022-12-08T03:43:42;4.68;;;3.20;;
76656;SDS011;65576;47.714;9.414;2022-12-08T03:46:08;4.28;;;2.90;;
76656;SDS011;65576;47.714;9.414;2022-12-08T03:48:33;5.15;;;3.25;;
76656;SDS011;65576;47.714;9.414;2022-12-08T03:50:58;3.70;;;2.72;;
76656;SDS011;65576;47.714;9.414;2022-12-08T03:53:23;6.40;;;4.07;;
76656;SDS011;65576;47.714;9.414;2022-12-08T03:55:49;12.65;;;4.22;;
76656;SDS011;65576;47.714;9.414;2022-12-08T03:58:14;4.22;;;2.97;;
76656;SDS011;65576;47.714;9.414;2022-12-08T04:00:39;6.30;;;3.63;;
76656;SDS011;65576;47.714;9.414;2022-12-08T04:03:05;2.58;;;1.75;;
76656;SDS011;65576;47.714;9.414;2022-12-08T04:05:30;5.00;;;2.05;;
76656;SDS011;65576;47.714;9.414;2022-12-08T04:07:56;7.78;;;2.60;;
76656;SDS011;65576;47.714;9.414;2022-12-08T04:10:21;4.57;;;2.88;;
76656;SDS011;65576;47.714;9.414;2022-12-08T04:12:46;2.58;;;2.38;;
76656;SDS011;65576;47.714;9.414;2022-12-08T04:15:12;3.58;;;2.67;;
76656;SDS011;65576;47.714;9.414;2022-12-08T04:17:37;4.18;;;3.15;;
76656;SDS011;65576;47.714;9.414;2022-12-08T04:20:02;3.50;;;2.55;;
76656;SDS011;65576;47.714;9.414;2022-12-08T04:22:28;3.25;;;2.40;;
76656;SDS011;65576;47.714;9.414;2022-12-08T04:24:53;3.63;;;3.17;;
76656;SDS011;65576;47.714;9.414;2022-12-08T04:27:18;1.67;;;1.45;;
76656;SDS011;65576;47.714;9.414;2022-12-08T04:29:43;4.05;;;2.78;;
76656;SDS011;65576;47.714;9.414;2022-12-08T04:32:09;4.22;;;2.92;;
76656;SDS011;65576;47.714;9.414;2022-12-08T04:34:34;3.10;;;2.58;;
76656;SDS011;65576;47.714;9.414;2022-12-08T04:36:59;4.75;;;2.38;;
76656;SDS011;65576;47.714;9.414;2022-12-08T04:39:24;2.65;;;1.50;;
76656;SDS011;65576;47.714;9.414;2022-12-08T04:41:50;2.25;;;2.03;;
76656;SDS011;65576;47.714;9.414;2022-12-08T04:44:15;3.17;;;1.77;;
76656;SDS011;65576;47.714;9.414;2022-12-08T04:46:40;4.43;;;3.13;;
76656;SDS011;65576;47.714;9.414;2022-12-08T04:49:06;2.47;;;2.28;;
76656;SDS011;65576;47.714;9.414;2022-12-08T04:51:31;4.47;;;2.05;;
76656;SDS011;65576;47.714;9.414;2022-12-08T04:53:56;2.47;;;2.28;;
76656;SDS011;65576;47.714;9.414;2022-12-08T04:56:21;3.35;;;2.53;;
76656;SDS011;65576;47.714;9.414;2022-12-08T04:58:47;5.50;;;3.63;;
76656;SDS011;65576;47.714;9.414;2022-12-08T05:01:12;4.38;;;3.05;;
76656;SDS011;65576;47.714;9.414;2022-12-08T05:03:38;3.78;;;2.60;;
76656;SDS011;65576;47.714;9.414;2022-12-08T05:06:03;3.28;;;2.65;;
76656;SDS011;65576;47.714;9.414;2022-12-08T05:08:29;3.17;;;2.85;;
76656;SDS011;65576;47.714;9.414;2022-12-08T05:11:04;2.55;;;2.25;;
76656;SDS011;65576;47.714;9.414;2022-12-08T05:13:31;5.03;;;3.22;;
76656;SDS011;65576;47.714;9.414;2022-12-08T05:16:03;3.20;;;2.13;;
76656;SDS011;65576;47.714;9.414;2022-12-08T05:18:30;4.15;;;2.38;;
76656;SDS011;65576;47.714;9.414;2022-12-08T05:20:55;5.70;;;3.30;;
76656;SDS011;65576;47.714;9.414;2022-12-08T05:23:20;5.57;;;3.55;;
76656;SDS011;65576;47.714;9.414;2022-12-08T05:25:46;5.80;;;2.70;;
76656;SDS011;65576;47.714;9.414;2022-12-08T05:28:11;3.15;;;2.17;;
76656;SDS011;65576;47.714;9.414;2022-12-08T05:30:36;3.75;;;2.75;;
76656;SDS011;65576;47.714;9.414;2022-12-08T05:33:01;2.80;;;2.53;;
76656;SDS011;65576;47.714;9.414;2022-12-08T05:35:27;4.40;;;2.30;;
76656;SDS011;65576;47.714;9.414;2022-12-08T05:37:52;2.90;;;2.28;;
76656;SDS011;65576;47.714;9.414;2022-12-08T05:40:18;6.40;;;2.63;;
76656;SDS011;65576;47.714;9.414;2022-12-08T05:42:43;3.25;;;1.98;;
76656;SDS011;65576;47.714;9.414;2022-12-08T05:45:08;2.58;;;2.38;;
76656;SDS011;65576;47.714;9.414;2022-12-08T05:47:34;2.55;;;1.45;;
76656;SDS011;65576;47.714;9.414;2022-12-08T05:49:59;5.78;;;3.28;;
76656;SDS011;65576;47.714;9.414;2022-12-08T05:52:24;2.03;;;1.92;;
76656;SDS011;65576;47.714;9.414;2022-12-08T05:54:49;6.75;;;2.63;;
76656;SDS011;65576;47.714;9.414;2022-12-08T05:57:15;2.80;;;2.20;;
76656;SDS011;65576;47.714;9.414;2022-12-08T05:59:40;2.13;;;1.92;;
76656;SDS011;65576;47.714;9.414;2022-12-08T06:02:06;7.35;;;4.28;;
76656;SDS011;65576;47.714;9.414;2022-12-08T06:04:32;3.42;;;3.13;;
76656;SDS011;65576;47.714;9.414;2022-12-08T06:06:58;7.18;;;3.58;;
76656;SDS011;65576;47.714;9.414;2022-12-08T06:09:23;3.40;;;2.65;;
76656;SDS011;65576;47.714;9.414;2022-12-08T06:11:48;10.05;;;5.03;;
76656;SDS011;65576;47.714;9.414;2022-12-08T06:14:13;14.40;;;5.35;;
76656;SDS011;65576;47.714;9.414;2022-12-08T06:16:39;4.43;;;4.03;;
76656;SDS011;65576;47.714;9.414;2022-12-08T06:19:04;3.08;;;2.80;;
76656;SDS011;65576;47.714;9.414;2022-12-08T06:21:29;6.35;;;3.90;;
76656;SDS011;65576;47.714;9.414;2022-12-08T06:23:55;11.88;;;3.95;;
76656;SDS011;65576;47.714;9.414;2022-12-08T06:26:20;3.17;;;2.10;;
76656;SDS011;65576;47.714;9.414;2022-12-08T06:28:46;4.85;;;2.83;;
76656;SDS011;65576;47.714;9.414;2022-12-08T06:31:18;2.40;;;2.08;;
76656;SDS011;65576;47.714;9.414;2022-12-08T06:33:45;2.38;;;1.77;;
76656;SDS011;65576;47.714;9.414;2022-12-08T06:36:11;5.10;;;3.13;;
76656;SDS011;65576;47.714;9.414;2022-12-08T06:38:38;4.32;;;2.58;;
76656;SDS011;65576;47.714;9.414;2022-12-08T06:41:04;5.82;;;2.30;;
76656;SDS011;65576;47.714;9.414;2022-12-08T06:43:29;6.10;;;2.97;;
76656;SDS011;65576;47.714;9.414;2022-12-08T06:45:55;4.57;;;3.38;;
76656;SDS011;65576;47.714;9.414;2022-12-08T06:48:20;5.18;;;3.35;;
76656;SDS011;65576;47.714;9.414;2022-12-08T06:50:45;5.35;;;2.17;;
76656;SDS011;65576;47.714;9.414;2022-12-08T06:53:11;2.20;;;2.00;;
76656;SDS011;65576;47.714;9.414;2022-12-08T06:55:41;1.90;;;1.27;;
76656;SDS011;65576;47.714;9.414;2022-12-08T06:58:10;6.00;;;1.85;;
76656;SDS011;65576;47.714;9.414;2022-12-08T07:00:36;2.58;;;2.25;;
76656;SDS011;65576;47.714;9.414;2022-12-08T07:03:01;3.25;;;2.95;;
76656;SDS011;65576;47.714;9.414;2022-12-08T07:05:27;2.90;;;2.28;;
76656;SDS011;65576;47.714;9.414;2022-12-08T07:07:52;3.50;;;2.42;;
76656;SDS011;65576;47.714;9.414;2022-12-08T07:10:17;3.97;;;2.65;;
76656;SDS011;65576;47.714;9.414;2022-12-08T07:12:43;7.32;;;3.63;;
76656;SDS011;65576;47.714;9.414;2022-12-08T07:15:08;3.65;;;3.25;;
76656;SDS011;65576;47.714;9.414;2022-12-08T07:17:34;4.43;;;2.20;;
76656;SDS011;65576;47.714;9.414;2022-12-08T07:19:59;3.45;;;2.72;;
76656;SDS011;65576;47.714;9.414;2022-12-08T07:22:24;1.70;;;1.60;;
76656;SDS011;65576;47.714;9.414;2022-12-08T07:24:49;3.08;;;2.70;;
76656;SDS011;65576;47.714;9.414;2022-12-08T07:27:15;3.30;;;1.70;;
76656;SDS011;65576;47.714;9.414;2022-12-08T07:29:40;5.13;;;2.78;;
76656;SDS011;65576;47.714;9.414;2022-12-08T07:32:06;4.18;;;2.75;;
76656;SDS011;65576;47.714;9.414;2022-12-08T07:34:32;4.13;;;3.33;;
76656;SDS011;65576;47.714;9.414;2022-12-08T07:36:57;4.00;;;2.80;;
76656;SDS011;65576;47.714;9.414;2022-12-08T07:39:22;5.35;;;2.67;;
76656;SDS011;65576;47.714;9.414;2022-12-08T07:41:48;3.38;;;2.63;;
76656;SDS011;65576;47.714;9.414;2022-12-08T07:44:13;4.00;;;3.38;;
76656;SDS011;65576;47.714;9.414;2022-12-08T07:46:39;3.75;;;2.50;;
76656;SDS011;65576;47.714;9.414;2022-12-08T07:49:04;3.30;;;3.00;;
76656;SDS011;65576;47.714;9.414;2022-12-08T07:51:29;3.97;;;2.35;;
76656;SDS011;65576;47.714;9.414;2022-12-08T07:53:54;8.40;;;3.60;;
76656;SDS011;65576;47.714;9.414;2022-12-08T07:56:20;3.65;;;3.13;;
76656;SDS011;65576;47.714;9.414;2022-12-08T07:58:45;2.75;;;2.45;;
76656;SDS011;65576;47.714;9.414;2022-12-08T08:01:24;5.78;;;3.92;;
76656;SDS011;65576;47.714;9.414;2022-12-08T08:03:52;2.78;;;2.42;;
76656;SDS011;65576;47.714;9.414;2022-12-08T08:06:18;3.67;;;2.08;;
76656;SDS011;65576;47.714;9.414;2022-12-08T08:08:44;4.47;;;3.53;;
76656;SDS011;65576;47.714;9.414;2022-12-08T08:11:09;2.75;;;2.30;;
76656;SDS011;65576;47.714;9.414;2022-12-08T08:13:34;4.30;;;3.47;;
76656;SDS011;65576;47.714;9.414;2022-12-08T08:16:01;3.95;;;3.53;;
76656;SDS011;65576;47.714;9.414;2022-12-08T08:18:30;3.22;;;2.60;;
76656;SDS011;65576;47.714;9.414;2022-12-08T08:20:56;3.38;;;2.80;;
76656;SDS011;65576;47.714;9.414;2022-12-08T08:23:22;5.53;;;2.83;;
76656;SDS011;65576;47.714;9.414;2022-12-08T08:25:47;4.75;;;3.33;;
76656;SDS011;65576;47.714;9.414;2022-12-08T08:28:12;4.63;;;3.05;;
76656;SDS011;65576;47.714;9.414;2022-12-08T08:30:38;2.67;;;1.90;;
76656;SDS011;65576;47.714;9.414;2022-12-08T08:33:04;4.43;;;2.63;;
76656;SDS011;65576;47.714;9.414;2022-12-08T08:35:29;3.40;;;3.08;;
76656;SDS011;65576;47.714;9.414;2022-12-08T08:37:54;3.33;;;2.85;;
76656;SDS011;65576;47.714;9.414;2022-12-08T08:40:20;2.80;;;2.60;;
76656;SDS011;65576;47.714;9.414;2022-12-08T08:42:45;2.45;;;1.77;;
76656;SDS011;65576;47.714;9.414;2022-12-08T08:45:10;1.77;;;1.67;;
76656;SDS011;65576;47.714;9.414;2022-12-08T08:47:35;5.35;;;2.60;;
76656;SDS011;65576;47.714;9.414;2022-12-08T08:50:01;3.85;;;2.38;;
76656;SDS011;65576;47.714;9.414;2022-12-08T08:52:26;3.20;;;2.13;;
76656;SDS011;65576;47.714;9.414;2022-12-08T08:54:51;4.55;;;3.08;;
76656;SDS011;65576;47.714;9.414;2022-12-08T08:57:17;7.43;;;3.85;;
76656;SDS011;65576;47.714;9.414;2022-12-08T08:59:42;4.40;;;2.67;;
76656;SDS011;65576;47.714;9.414;2022-12-08T09:02:09;5.00;;;3.22;;
76656;SDS011;65576;47.714;9.414;2022-12-08T09:04:40;3.30;;;2.28;;
76656;SDS011;65576;47.714;9.414;2022-12-08T09:07:06;4.07;;;2.67;;
76656;SDS011;65576;47.714;9.414;2022-12-08T09:09:31;4.05;;;2.90;;
76656;SDS011;65576;47.714;9.414;2022-12-08T09:11:56;5.22;;;2.90;;
76656;SDS011;65576;47.714;9.414;2022-12-08T09:14:21;2.22;;;1.45;;
76656;SDS011;65576;47.714;9.414;2022-12-08T09:16:47;5.97;;;3.10;;
76656;SDS011;65576;47.714;9.414;2022-12-08T09:19:13;5.80;;;3.63;;
76656;SDS011;65576;47.714;9.414;2022-12-08T09:21:39;4.30;;;3.53;;
76656;SDS011;65576;47.714;9.414;2022-12-08T09:24:04;14.02;;;4.50;;
76656;SDS011;65576;47.714;9.414;2022-12-08T09:26:29;5.18;;;2.65;;
76656;SDS011;65576;47.714;9.414;2022-12-08T09:28:55;4.43;;;2.72;;
76656;SDS011;65576;47.714;9.414;2022-12-08T09:31:21;2.70;;;2.50;;
76656;SDS011;65576;47.714;9.414;2022-12-08T09:33:47;3.00;;;2.70;;
76656;SDS011;65576;47.714;9.414;2022-12-08T09:36:15;4.50;;;3.33;;
76656;SDS011;65576;47.714;9.414;2022-12-08T09:38:41;2.70;;;2.50;;
76656;SDS011;65576;47.714;9.414;2022-12-08T09:41:12;5.72;;;2.85;;
76656;SDS011;65576;47.714;9.414;2022-12-08T09:44:22;3.03;;;2.17;;
76656;SDS011;65576;47.714;9.414;2022-12-08T09:46:52;2.97;;;2.67;;
76656;SDS011;65576;47.714;9.414;2022-12-08T09:49:21;4.38;;;2.75;;
76656;SDS011;65576;47.714;9.414;2022-12-08T09:51:51;7.70;;;3.78;;
76656;SDS011;65576;47.714;9.414;2022-12-08T09:54:21;5.78;;;3.13;;
76656;SDS011;65576;47.714;9.414;2022-12-08T09:56:52;4.20;;;2.45;;
76656;SDS011;65576;47.714;9.414;2022-12-08T09:59:21;4.82;;;2.55;;
76656;SDS011;65576;47.714;9.414;2022-12-08T10:01:49;2.58;;;1.95;;
76656;SDS011;65576;47.714;9.414;2022-12-08T10:06:55;2.17;;;1.98;;
76656;SDS011;65576;47.714;9.414;2022-12-08T10:12:17;6.43;;;2.20;;
76656;SDS011;65576;47.714;9.414;2022-12-08T10:14:46;4.05;;;2.75;;
76656;SDS011;65576;47.714;9.414;2022-12-08T10:17:23;3.60;;;2.25;;
76656;SDS011;65576;47.714;9.414;2022-12-08T10:19:54;1.77;;;1.58;;
76656;SDS011;65576;47.714;9.414;2022-12-08T10:22:23;8.65;;;3.40;;
76656;SDS011;65576;47.714;9.414;2022-12-08T10:24:56;2.25;;;1.88;;
76656;SDS011;65576;47.714;9.414;2022-12-08T10:27:24;5.28;;;1.73;;
76656;SDS011;65576;47.714;9.414;2022-12-08T10:29:49;3.40;;;2.30;;
76656;SDS011;65576;47.714;9.414;2022-12-08T10:32:23;2.08;;;1.83;;
76656;SDS011;65576;47.714;9.414;2022-12-08T10:37:31;3.03;;;2.40;;
76656;SDS011;65576;47.714;9.414;2022-12-08T10:40:10;2.58;;;2.38;;
76656;SDS011;65576;47.714;9.414;2022-12-08T10:42:38;6.72;;;1.73;;
76656;SDS011;65576;47.714;9.414;2022-12-08T10:47:42;5.78;;;2.83;;
76656;SDS011;65576;47.714;9.414;2022-12-08T10:50:28;6.13;;;2.80;;
76656;SDS011;65576;47.714;9.414;2022-12-08T10:58:25;2.78;;;1.92;;
76656;SDS011;65576;47.714;9.414;2022-12-08T11:00:57;2.60;;;1.60;;
76656;SDS011;65576;47.714;9.414;2022-12-08T11:03:30;2.92;;;2.35;;
76656;SDS011;65576;47.714;9.414;2022-12-08T11:05:59;4.30;;;2.85;;
76656;SDS011;65576;47.714;9.414;2022-12-08T11:08:33;3.63;;;2.53;;
76656;SDS011;65576;47.714;9.414;2022-12-08T11:11:12;1.20;;;1.10;;
76656;SDS011;65576;47.714;9.414;2022-12-08T11:13:39;6.35;;;2.85;;
76656;SDS011;65576;47.714;9.414;2022-12-08T11:16:05;5.47;;;2.50;;
76656;SDS011;65576;47.714;9.414;2022-12-08T11:18:38;3.78;;;2.28;;
76656;SDS011;65576;47.714;9.414;2022-12-08T11:21:12;4.78;;;2.08;;
76656;SDS011;65576;47.714;9.414;2022-12-08T11:23:40;3.05;;;2.70;;
76656;SDS011;65576;47.714;9.414;2022-12-08T11:26:29;3.60;;;2.35;;
76656;SDS011;65576;47.714;9.414;2022-12-08T11:28:59;2.35;;;1.83;;
76656;SDS011;65576;47.714;9.414;2022-12-08T11:31:31;2.20;;;1.98;;
76656;SDS011;65576;47.714;9.414;2022-12-08T11:34:01;3.65;;;1.92;;
76656;SDS011;65576;47.714;9.414;2022-12-08T11:36:27;2.50;;;2.30;;
76656;SDS011;65576;47.714;9.414;2022-12-08T11:38:56;3.10;;;2.10;;
76656;SDS011;65576;47.714;9.414;2022-12-08T11:41:32;2.55;;;1.55;;
76656;SDS011;65576;47.714;9.414;2022-12-08T11:46:50;4.93;;;2.72;;
76656;SDS011;65576;47.714;9.414;2022-12-08T11:49:21;4.30;;;2.45;;
76656;SDS011;65576;47.714;9.414;2022-12-08T11:54:45;2.90;;;2.00;;
76656;SDS011;65576;47.714;9.414;2022-12-08T11:57:14;3.65;;;1.95;;
76656;SDS011;65576;47.714;9.414;2022-12-08T11:59:43;3.15;;;2.20;;
76656;SDS011;65576;47.714;9.414;2022-12-08T12:02:14;2.08;;;1.90;;
76656;SDS011;65576;47.714;9.414;2022-12-08T12:04:53;5.53;;;2.58;;
76656;SDS011;65576;47.714;9.414;2022-12-08T12:13:06;4.65;;;2.17;;
76656;SDS011;65576;47.714;9.414;2022-12-08T12:15:42;3.85;;;2.47;;
76656;SDS011;65576;47.714;9.414;2022-12-08T12:26:06;2.80;;;2.35;;
76656;SDS011;65576;47.714;9.414;2022-12-08T12:28:39;2.92;;;2.05;;
76656;SDS011;65576;47.714;9.414;2022-12-08T12:31:12;3.47;;;3.15;;
76656;SDS011;65576;47.714;9.414;2022-12-08T12:33:42;3.72;;;2.33;;
76656;SDS011;65576;47.714;9.414;2022-12-08T12:36:10;2.17;;;1.92;;
76656;SDS011;65576;47.714;9.414;2022-12-08T12:38:47;2.20;;;1.95;;
76656;SDS011;65576;47.714;9.414;2022-12-08T12:41:30;4.13;;;2.10;;
76656;SDS011;65576;47.714;9.414;2022-12-08T12:44:23;4.28;;;2.85;;
76656;SDS011;65576;47.714;9.414;2022-12-08T12:47:00;2.65;;;1.90;;
76656;SDS011;65576;47.714;9.414;2022-12-08T12:52:02;5.10;;;2.92;;
76656;SDS011;65576;47.714;9.414;2022-12-08T12:54:29;3.83;;;2.42;;
76656;SDS011;65576;47.714;9.414;2022-12-08T12:56:56;6.50;;;1.58;;
76656;SDS011;65576;47.714;9.414;2022-12-08T13:02:27;5.00;;;2.88;;
76656;SDS011;65576;47.714;9.414;2022-12-08T13:07:58;3.83;;;2.20;;
76656;SDS011;65576;47.714;9.414;2022-12-08T13:15:36;6.28;;;2.53;;
76656;SDS011;65576;47.714;9.414;2022-12-08T13:18:04;3.67;;;2.28;;
76656;SDS011;65576;47.714;9.414;2022-12-08T13:20:33;7.88;;;3.88;;
76656;SDS011;65576;47.714;9.414;2022-12-08T13:23:22;6.82;;;1.73;;
76656;SDS011;65576;47.714;9.414;2022-12-08T13:25:51;2.50;;;2.08;;
76656;SDS011;65576;47.714;9.414;2022-12-08T13:28:21;5.20;;;2.97;;
76656;SDS011;65576;47.714;9.414;2022-12-08T13:33:32;4.60;;;2.80;;
76656;SDS011;65576;47.714;9.414;2022-12-08T13:36:10;6.95;;;3.17;;
76656;SDS011;65576;47.714;9.414;2022-12-08T13:38:42;3.72;;;2.45;;
76656;SDS011;65576;47.714;9.414;2022-12-08T13:41:18;2.45;;;1.65;;
76656;SDS011;65576;47.714;9.414;2022-12-08T13:44:11;7.45;;;2.28;;
76656;SDS011;65576;47.714;9.414;2022-12-08T13:46:42;6.07;;;2.22;;
76656;SDS011;65576;47.714;9.414;2022-12-08T13:49:08;2.17;;;1.80;;
76656;SDS011;65576;47.714;9.414;2022-12-08T13:51:43;5.60;;;2.47;;
76656;SDS011;65576;47.714;9.414;2022-12-08T13:54:17;1.90;;;1.70;;
76656;SDS011;65576;47.714;9.414;2022-12-08T13:56:46;3.35;;;2.13;;
76656;SDS011;65576;47.714;9.414;2022-12-08T13:59:30;4.63;;;2.83;;
76656;SDS011;65576;47.714;9.414;2022-12-08T14:02:00;4.03;;;3.13;;
76656;SDS011;65576;47.714;9.414;2022-12-08T14:06:55;3.10;;;2.80;;
76656;SDS011;65576;47.714;9.414;2022-12-08T14:09:24;3.05;;;1.75;;
76656;SDS011;65576;47.714;9.414;2022-12-08T14:11:54;3.85;;;2.67;;
76656;SDS011;65576;47.714;9.414;2022-12-08T14:16:54;10.52;;;3.97;;
76656;SDS011;65576;47.714;9.414;2022-12-08T14:19:25;6.45;;;2.67;;
76656;SDS011;65576;47.714;9.414;2022-12-08T14:24:24;6.10;;;3.05;;
76656;SDS011;65576;47.714;9.414;2022-12-08T14:26:52;6.65;;;2.17;;
76656;SDS011;65576;47.714;9.414;2022-12-08T14:32:05;2.28;;;2.08;;
76656;SDS011;65576;47.714;9.414;2022-12-08T14:34:43;3.20;;;2.10;;
76656;SDS011;65576;47.714;9.414;2022-12-08T14:37:11;1.92;;;1.63;;
76656;SDS011;65576;47.714;9.414;2022-12-08T14:39:38;9.15;;;5.03;;
76656;SDS011;65576;47.714;9.414;2022-12-08T14:42:03;7.22;;;4.30;;
76656;SDS011;65576;47.714;9.414;2022-12-08T14:44:30;4.43;;;3.75;;
76656;SDS011;65576;47.714;9.414;2022-12-08T14:47:08;4.20;;;3.25;;
76656;SDS011;65576;47.714;9.414;2022-12-08T14:49:37;5.00;;;3.55;;
76656;SDS011;65576;47.714;9.414;2022-12-08T14:52:10;33.00;;;13.57;;
76656;SDS011;65576;47.714;9.414;2022-12-08T14:54:35;34.72;;;15.52;;
76656;SDS011;65576;47.714;9.414;2022-12-08T14:57:02;54.47;;;20.20;;
76656;SDS011;65576;47.714;9.414;2022-12-08T14:59:45;15.27;;;6.57;;
76656;SDS011;65576;47.714;9.414;2022-12-08T15:04:44;8.52;;;2.75;;
76656;SDS011;65576;47.714;9.414;2022-12-08T15:07:15;1.75;;;1.17;;
76656;SDS011;65576;47.714;9.414;2022-12-08T15:09:43;2.95;;;1.98;;
76656;SDS011;65576;47.714;9.414;2022-12-08T15:14:36;12.27;;;2.30;;
76656;SDS011;65576;47.714;9.414;2022-12-08T15:22:51;1.55;;;1.45;;
76656;SDS011;65576;47.714;9.414;2022-12-08T15:25:17;3.75;;;2.30;;
76656;SDS011;65576;47.714;9.414;2022-12-08T15:27:42;2.03;;;1.83;;
76656;SDS011;65576;47.714;9.414;2022-12-08T15:30:11;3.00;;;2.47;;
76656;SDS011;65576;47.714;9.414;2022-12-08T15:32:38;2.08;;;1.75;;
76656;SDS011;65576;47.714;9.414;2022-12-08T15:35:03;5.28;;;3.42;;
76656;SDS011;65576;47.714;9.414;2022-12-08T15:37:29;2.58;;;1.60;;
76656;SDS011;65576;47.714;9.414;2022-12-08T15:39:54;2.90;;;2.13;;
76656;SDS011;65576;47.714;9.414;2022-12-08T15:42:19;6.15;;;3.15;;
76656;SDS011;65576;47.714;9.414;2022-12-08T15:44:45;3.47;;;2.75;;
76656;SDS011;65576;47.714;9.414;2022-12-08T15:47:13;6.15;;;3.17;;
76656;SDS011;65576;47.714;9.414;2022-12-08T15:49:40;4.97;;;2.55;;
76656;SDS011;65576;47.714;9.414;2022-12-08T15:52:10;6.40;;;2.72;;
76656;SDS011;65576;47.714;9.414;2022-12-08T15:54:37;6.45;;;3.50;;
76656;SDS011;65576;47.714;9.414;2022-12-08T15:57:03;3.72;;;2.97;;
76656;SDS011;65576;47.714;9.414;2022-12-08T15:59:29;8.80;;;4.85;;
76656;SDS011;65576;47.714;9.414;2022-12-08T16:01:54;6.63;;;3.20;;
76656;SDS011;65576;47.714;9.414;2022-12-08T16:04:20;6.97;;;3.63;;
76656;SDS011;65576;47.714;9.414;2022-12-08T16:06:49;4.80;;;2.90;;
76656;SDS011;65576;47.714;9.414;2022-12-08T16:12:00;8.05;;;3.70;;
76656;SDS011;65576;47.714;9.414;2022-12-08T16:14:43;11.77;;;7.05;;
76656;SDS011;65576;47.714;9.414;2022-12-08T16:17:13;12.52;;;5.88;;
76656;SDS011;65576;47.714;9.414;2022-12-08T16:19:39;16.38;;;9.85;;
76656;SDS011;65576;47.714;9.414;2022-12-08T16:22:04;28.60;;;15.40;;
76656;SDS011;65576;47.714;9.414;2022-12-08T16:24:30;28.98;;;13.57;;
76656;SDS011;65576;47.714;9.414;2022-12-08T16:26:55;34.75;;;14.07;;
76656;SDS011;65576;47.714;9.414;2022-12-08T16:29:21;8.45;;;6.18;;
76656;SDS011;65576;47.714;9.414;2022-12-08T16:31:47;11.70;;;5.65;;
76656;SDS011;65576;47.714;9.414;2022-12-08T16:34:13;6.63;;;4.53;;
76656;SDS011;65576;47.714;9.414;2022-12-08T16:36:39;17.08;;;4.93;;